Archival Weather

Republic

Farmingdale, New York (KFRG)

Report from: Wednesday, February 14, 2024 8:53 AM EST
Current time: Friday, June 14, 2024 9:02 AM EDT

Current weather – Weather history – Daily summaries
Weather forecast

Temperature-1.1°C (30.0°F)
Wind chill-7.4°C (18.7°F)
Dew point-11.7°C (10.9°F)
Winds 14 kts (7.2 m/s, 16.1 mph) West-Northwest (300°)
Wind gusts 25 kts (12.9 m/s, 28.8 mph)
Peak wind 32 kts (16.5 m/s, 36.8 mph) West (280°) at 13:24
Visibility10 mi. (16.1 km)
Clouds Sky clear
Altimeter30.00 in.Hg (1016 mB)
Relative humidity44 %
Density altitude-2,018 ft. (-615 m)
Sea-level pressure101.6 kPa (1016 mB, 30.00 in.Hg)
Remarks Automated weather observing station without precipitation discriminator
Flight conditions Visual Meteorological Conditions
Raw dataKFRG 141353Z 30014G25KT 10SM CLR M01/M12 A3000 RMK AO1 PK WND 28032/1324 SLP159 T10111117
An error has occurred. This application may no longer respond until reloaded. Reload 🗙